Time;durP1;ratioP1;P1;durP2;ratioP2;P2;SDS_P1;SDS_P2;PMS_P1;PMS_P2;Temp;Humidity;BMP_temperature;BMP_pressure;BME280_temperature;BME280_humidity;BME280_pressure;Samples;Min_cycle;Max_cycle;Signal;HPM_P1;HPM_P2
2022/09/27 00:01:17;;;;;;;4.73;3.57;;;;;;;;;;5074885;28;20455;-72
2022/09/27 00:03:45;;;;;;;4.00;3.10;;;;;;;;;;5074529;28;20454;-72
2022/09/27 00:06:13;;;;;;;3.77;3.37;;;;;;;;;;5074721;28;20467;-72
2022/09/27 00:08:42;;;;;;;9.30;4.10;;;;;;;;;;5074695;28;20462;-72
2022/09/27 00:11:12;;;;;;;4.20;3.27;;;;;;;;;;5074689;28;20444;-72
2022/09/27 00:13:39;;;;;;;4.53;3.47;;;;;;;;;;5074540;28;20459;-72
2022/09/27 00:16:07;;;;;;;4.63;3.97;;;;;;;;;;5074745;28;21008;-72
2022/09/27 00:18:34;;;;;;;7.57;3.30;;;;;;;;;;5074483;28;20543;-72
2022/09/27 00:21:05;;;;;;;4.13;3.37;;;;;;;;;;5074558;28;20817;-72
2022/09/27 00:23:32;;;;;;;4.40;3.20;;;;;;;;;;5074240;28;20462;-72
2022/09/27 00:26:01;;;;;;;5.63;4.53;;;;;;;;;;5074378;28;20463;-72
2022/09/27 00:28:29;;;;;;;4.50;3.63;;;;;;;;;;5074326;28;20444;-72
2022/09/27 00:30:57;;;;;;;9.10;3.90;;;;;;;;;;5074412;28;20805;-72
2022/09/27 00:33:24;;;;;;;5.63;4.50;;;;;;;;;;5074118;28;20459;-72
2022/09/27 00:35:51;;;;;;;4.90;4.30;;;;;;;;;;5073920;28;20491;-72
2022/09/27 00:38:18;;;;;;;4.60;3.70;;;;;;;;;;5074244;28;20448;-72
2022/09/27 00:40:45;;;;;;;10.57;4.00;;;;;;;;;;5074343;28;20812;-72
2022/09/27 00:43:18;;;;;;;7.33;4.70;;;;;;;;;;5073839;28;20462;-72
2022/09/27 00:45:48;;;;;;;9.33;4.53;;;;;;;;;;5073534;28;20491;-72
2022/09/27 00:48:17;;;;;;;6.97;5.40;;;;;;;;;;5074245;28;20448;-72
2022/09/27 00:50:46;;;;;;;5.13;4.60;;;;;;;;;;5074191;28;20455;-72
2022/09/27 00:53:16;;;;;;;8.33;3.70;;;;;;;;;;5074083;28;21014;-72
2022/09/27 00:55:45;;;;;;;5.13;3.80;;;;;;;;;;5073257;28;20494;-72
2022/09/27 00:58:13;;;;;;;5.63;3.70;;;;;;;;;;5073870;28;20821;-72
2022/09/27 01:00:45;;;;;;;4.47;3.80;;;;;;;;;;5073740;28;20452;-72
2022/09/27 01:03:13;;;;;;;7.67;4.03;;;;;;;;;;5073758;28;20451;-72
2022/09/27 01:05:41;;;;;;;8.70;3.67;;;;;;;;;;5072467;28;20494;-72
2022/09/27 01:08:08;;;;;;;12.47;4.37;;;;;;;;;;5073576;28;20458;-72
2022/09/27 01:10:37;;;;;;;8.10;4.10;;;;;;;;;;5073774;28;20900;-72
2022/09/27 01:13:07;;;;;;;4.57;3.80;;;;;;;;;;5073613;28;20513;-72
2022/09/27 01:15:37;;;;;;;6.80;3.83;;;;;;;;;;5072999;28;20492;-72
2022/09/27 01:18:13;;;;;;;6.70;3.63;;;;;;;;;;5073538;28;20522;-72
2022/09/27 01:20:57;;;;;;;6.80;3.50;;;;;;;;;;5073388;28;20447;-72
2022/09/27 01:23:41;;;;;;;7.30;4.00;;;;;;;;;;5073246;28;20926;-72
2022/09/27 01:26:13;;;;;;;4.37;3.57;;;;;;;;;;5073225;28;20467;-72
2022/09/27 01:28:48;;;;;;;5.63;4.00;;;;;;;;;;5073397;28;20509;-72
2022/09/27 01:31:21;;;;;;;5.83;3.07;;;;;;;;;;5073459;28;20443;-72
2022/09/27 01:33:55;;;;;;;4.03;3.17;;;;;;;;;;5073135;28;20825;-72
2022/09/27 01:36:28;;;;;;;5.30;3.90;;;;;;;;;;5073388;28;20452;-72
2022/09/27 01:39:02;;;;;;;7.43;3.40;;;;;;;;;;5073333;28;20448;-72
2022/09/27 01:41:34;;;;;;;3.60;2.63;;;;;;;;;;5073201;28;20458;-72
2022/09/27 01:44:03;;;;;;;3.73;2.87;;;;;;;;;;5073027;28;20457;-72
2022/09/27 01:46:34;;;;;;;3.70;2.40;;;;;;;;;;5073279;28;20459;-72
2022/09/27 01:49:03;;;;;;;2.43;2.23;;;;;;;;;;5073204;28;20455;-72
2022/09/27 01:51:32;;;;;;;7.43;4.10;;;;;;;;;;5072975;28;20455;-72
2022/09/27 01:54:02;;;;;;;4.30;2.80;;;;;;;;;;5072873;28;20479;-72
2022/09/27 01:56:32;;;;;;;2.60;2.40;;;;;;;;;;5072926;28;20504;-72
2022/09/27 01:59:04;;;;;;;2.70;2.50;;;;;;;;;;5073010;28;20818;-72
2022/09/27 02:01:34;;;;;;;3.80;2.63;;;;;;;;;;5072965;28;20463;-72
2022/09/27 02:04:02;;;;;;;3.40;2.57;;;;;;;;;;5072655;28;20455;-72
2022/09/27 02:06:31;;;;;;;2.83;2.33;;;;;;;;;;5072814;28;20452;-72
2022/09/27 02:08:59;;;;;;;4.10;2.50;;;;;;;;;;5072819;28;20456;-72
2022/09/27 02:11:27;;;;;;;2.40;2.03;;;;;;;;;;5072811;28;20451;-72
2022/09/27 02:13:55;;;;;;;3.53;2.50;;;;;;;;;;5072560;28;20824;-72
2022/09/27 02:16:26;;;;;;;3.40;2.73;;;;;;;;;;5074626;28;20487;-72
2022/09/27 02:19:02;;;;;;;3.40;2.40;;;;;;;;;;5076975;28;20451;-72
2022/09/27 02:21:33;;;;;;;3.53;2.50;;;;;;;;;;5077082;28;20508;-72
2022/09/27 02:24:03;;;;;;;3.13;2.30;;;;;;;;;;5076516;28;20452;-72
2022/09/27 02:26:33;;;;;;;3.30;2.57;;;;;;;;;;5076540;28;20463;-71
2022/09/27 02:29:05;;;;;;;2.40;2.10;;;;;;;;;;5076703;28;20800;-71
2022/09/27 02:31:32;;;;;;;3.90;2.20;;;;;;;;;;5076756;28;20505;-71
2022/09/27 02:34:03;;;;;;;4.53;2.43;;;;;;;;;;5076248;28;20455;-71
2022/09/27 02:36:30;;;;;;;3.37;2.50;;;;;;;;;;5076548;28;20487;-71
2022/09/27 02:38:57;;;;;;;6.23;2.57;;;;;;;;;;5076569;28;20452;-72
2022/09/27 02:41:24;;;;;;;2.90;2.17;;;;;;;;;;5076223;28;20454;-72
2022/09/27 02:43:55;;;;;;;3.30;2.93;;;;;;;;;;5076246;28;20941;-72
2022/09/27 02:46:39;;;;;;;3.13;2.83;;;;;;;;;;5076133;28;20444;-72
2022/09/27 02:49:18;;;;;;;3.57;2.40;;;;;;;;;;5076153;28;20451;-72
2022/09/27 02:51:52;;;;;;;6.10;5.50;;;;;;;;;;5076277;28;20459;-72
2022/09/27 02:54:23;;;;;;;3.93;3.27;;;;;;;;;;5075800;28;20471;-71
2022/09/27 02:56:54;;;;;;;3.70;3.10;;;;;;;;;;5076403;28;20458;-72
2022/09/27 02:59:26;;;;;;;3.77;3.27;;;;;;;;;;5076114;28;20467;-72
2022/09/27 03:02:03;;;;;;;6.87;3.87;;;;;;;;;;5075992;28;20452;-71
2022/09/27 03:04:35;;;;;;;3.57;3.00;;;;;;;;;;5075567;28;20475;-72
2022/09/27 03:07:02;;;;;;;4.37;3.90;;;;;;;;;;5075872;28;20470;-72
2022/09/27 03:09:30;;;;;;;3.83;3.23;;;;;;;;;;5075924;28;20483;-72
2022/09/27 03:11:57;;;;;;;5.67;3.80;;;;;;;;;;5076112;28;20448;-72
2022/09/27 03:14:24;;;;;;;6.07;5.03;;;;;;;;;;5075413;28;20471;-72
2022/09/27 03:16:52;;;;;;;6.87;3.37;;;;;;;;;;5075906;28;20447;-72
2022/09/27 03:19:19;;;;;;;4.20;3.50;;;;;;;;;;5075689;28;20448;-72
2022/09/27 03:21:47;;;;;;;5.80;4.27;;;;;;;;;;5075585;28;20813;-72
2022/09/27 03:24:14;;;;;;;4.10;2.80;;;;;;;;;;5075467;28;20479;-72
2022/09/27 03:26:41;;;;;;;4.87;3.53;;;;;;;;;;5075390;28;20463;-72
2022/09/27 03:29:08;;;;;;;4.27;3.83;;;;;;;;;;5074745;28;20478;-72
2022/09/27 03:31:35;;;;;;;6.60;3.20;;;;;;;;;;5075453;28;20455;-72
2022/09/27 03:34:02;;;;;;;5.03;3.87;;;;;;;;;;5075048;28;20451;-72
2022/09/27 03:36:30;;;;;;;5.40;3.63;;;;;;;;;;5075222;28;21043;-72
2022/09/27 03:38:58;;;;;;;4.93;3.90;;;;;;;;;;5075482;28;20456;-72
2022/09/27 03:41:25;;;;;;;14.50;10.70;;;;;;;;;;5075698;28;20929;-72
2022/09/27 03:43:55;;;;;;;15.27;8.27;;;;;;;;;;5075057;28;20455;-72
2022/09/27 03:46:22;;;;;;;4.50;4.10;;;;;;;;;;5075218;28;20816;-72
2022/09/27 03:48:49;;;;;;;5.80;4.13;;;;;;;;;;5074955;28;20454;-72
2022/09/27 03:51:16;;;;;;;4.37;3.53;;;;;;;;;;5075440;28;20448;-72
2022/09/27 03:53:43;;;;;;;5.10;3.33;;;;;;;;;;5074915;28;20451;-72
2022/09/27 03:56:12;;;;;;;7.00;3.77;;;;;;;;;;5074884;28;20495;-72
2022/09/27 03:58:39;;;;;;;3.70;3.33;;;;;;;;;;5075104;28;20460;-72
2022/09/27 04:01:06;;;;;;;7.10;5.73;;;;;;;;;;5075206;28;20456;-72
2022/09/27 04:03:34;;;;;;;5.40;3.83;;;;;;;;;;5074636;28;20452;-72
2022/09/27 04:06:02;;;;;;;3.30;3.00;;;;;;;;;;5074732;28;20471;-72
2022/09/27 04:08:29;;;;;;;3.47;2.90;;;;;;;;;;5074818;28;20928;-72
2022/09/27 04:10:56;;;;;;;3.90;2.93;;;;;;;;;;5074825;28;20838;-72
2022/09/27 04:13:24;;;;;;;4.67;4.17;;;;;;;;;;5074535;28;20467;-72
2022/09/27 04:15:53;;;;;;;7.67;3.03;;;;;;;;;;5074287;28;20830;-72
2022/09/27 04:18:20;;;;;;;7.47;3.50;;;;;;;;;;5074461;28;20535;-72
2022/09/27 04:20:47;;;;;;;5.47;3.77;;;;;;;;;;5074810;28;20471;-72
2022/09/27 04:23:14;;;;;;;7.63;4.70;;;;;;;;;;5074533;28;20458;-72
2022/09/27 04:25:41;;;;;;;4.63;3.77;;;;;;;;;;5074223;28;20463;-72
2022/09/27 04:28:08;;;;;;;3.90;3.17;;;;;;;;;;5074423;28;20970;-72
2022/09/27 04:30:36;;;;;;;7.80;3.40;;;;;;;;;;5074222;28;20455;-72
2022/09/27 04:33:03;;;;;;;3.90;3.47;;;;;;;;;;5073449;28;20460;-72
2022/09/27 04:38:15;;;;;;;7.53;4.30;;;;;;;;;;5073227;28;20473;-72
2022/09/27 04:40:43;;;;;;;4.97;4.50;;;;;;;;;;5073145;28;20444;-72
2022/09/27 04:43:10;;;;;;;6.57;4.27;;;;;;;;;;5072874;28;20475;-72
2022/09/27 04:45:39;;;;;;;7.63;4.97;;;;;;;;;;5072592;28;20478;-72
2022/09/27 04:48:06;;;;;;;5.33;4.57;;;;;;;;;;5073254;28;20443;-72
2022/09/27 04:50:33;;;;;;;6.67;4.77;;;;;;;;;;5073097;28;20458;-72
2022/09/27 04:53:00;;;;;;;6.67;4.37;;;;;;;;;;5073094;28;20922;-72
2022/09/27 04:55:27;;;;;;;5.77;3.50;;;;;;;;;;5072410;28;20605;-72
2022/09/27 04:57:54;;;;;;;7.50;5.80;;;;;;;;;;5072707;28;20456;-72
2022/09/27 05:00:21;;;;;;;6.07;4.63;;;;;;;;;;5072736;28;20817;-72
2022/09/27 05:02:50;;;;;;;10.60;3.63;;;;;;;;;;5072863;28;20444;-72
2022/09/27 05:05:17;;;;;;;10.53;6.30;;;;;;;;;;5072570;28;20829;-72
2022/09/27 05:07:44;;;;;;;5.20;4.30;;;;;;;;;;5072555;28;20451;-72
2022/09/27 05:10:11;;;;;;;6.30;4.10;;;;;;;;;;5072662;28;20455;-72
2022/09/27 05:12:39;;;;;;;4.00;3.60;;;;;;;;;;5072492;28;20470;-72
2022/09/27 05:15:06;;;;;;;4.47;3.47;;;;;;;;;;5072241;28;20475;-72
2022/09/27 05:17:33;;;;;;;8.20;4.80;;;;;;;;;;5087625;28;20471;-72
2022/09/27 05:20:02;;;;;;;3.80;3.43;;;;;;;;;;5092861;28;20450;-72
2022/09/27 05:22:30;;;;;;;6.37;3.47;;;;;;;;;;5092629;28;20489;-72
2022/09/27 05:24:57;;;;;;;3.60;3.10;;;;;;;;;;5092557;28;20828;-72
2022/09/27 05:27:24;;;;;;;5.80;4.80;;;;;;;;;;5092461;28;20450;-72
2022/09/27 05:29:52;;;;;;;5.67;3.10;;;;;;;;;;5091627;28;20912;-72
2022/09/27 05:32:20;;;;;;;6.50;3.70;;;;;;;;;;5092322;28;20447;-72
2022/09/27 05:34:48;;;;;;;7.73;3.77;;;;;;;;;;5090790;28;20984;-72
2022/09/27 05:37:17;;;;;;;5.60;4.70;;;;;;;;;;5092144;28;20979;-72
2022/09/27 05:39:45;;;;;;;4.73;3.50;;;;;;;;;;5092259;28;20545;-72
2022/09/27 05:42:14;;;;;;;4.90;2.90;;;;;;;;;;5092550;28;20969;-72
2022/09/27 05:44:41;;;;;;;3.23;2.93;;;;;;;;;;5091808;28;20479;-72
2022/09/27 05:47:08;;;;;;;3.60;2.70;;;;;;;;;;5092205;28;20454;-72
2022/09/27 05:49:36;;;;;;;3.30;3.00;;;;;;;;;;5092099;28;20457;-72
2022/09/27 05:52:03;;;;;;;2.87;2.57;;;;;;;;;;5091808;28;20462;-72
2022/09/27 05:54:31;;;;;;;15.83;8.53;;;;;;;;;;5091564;28;20478;-72
2022/09/27 05:56:59;;;;;;;10.33;6.80;;;;;;;;;;5092109;28;20487;-72
2022/09/27 05:59:26;;;;;;;6.70;3.47;;;;;;;;;;5092106;28;20457;-72
2022/09/27 06:01:54;;;;;;;5.70;3.33;;;;;;;;;;5092503;28;20462;-72
2022/09/27 06:04:21;;;;;;;4.40;3.70;;;;;;;;;;5091614;28;20831;-72
2022/09/27 06:06:48;;;;;;;3.63;2.93;;;;;;;;;;5092085;28;20461;-72
2022/09/27 06:09:16;;;;;;;4.70;2.80;;;;;;;;;;5092152;28;20828;-72
2022/09/27 06:11:45;;;;;;;4.07;2.97;;;;;;;;;;5091693;28;20454;-72
2022/09/27 06:14:12;;;;;;;3.30;2.33;;;;;;;;;;5091794;28;20474;-72
2022/09/27 06:16:39;;;;;;;3.10;2.50;;;;;;;;;;5091502;28;20497;-72
2022/09/27 06:19:07;;;;;;;3.33;2.20;;;;;;;;;;5092138;28;20830;-72
2022/09/27 06:21:34;;;;;;;3.80;2.50;;;;;;;;;;5091568;28;20515;-72
2022/09/27 06:24:02;;;;;;;3.13;2.33;;;;;;;;;;5091677;28;20554;-72
2022/09/27 06:26:29;;;;;;;3.07;2.57;;;;;;;;;;5091643;28;20446;-72
2022/09/27 06:28:57;;;;;;;4.20;3.03;;;;;;;;;;5092062;28;20447;-72
2022/09/27 06:31:24;;;;;;;4.00;2.80;;;;;;;;;;5091874;28;20451;-72
2022/09/27 06:33:52;;;;;;;2.77;2.37;;;;;;;;;;5091666;28;20446;-72
2022/09/27 06:36:19;;;;;;;2.60;2.23;;;;;;;;;;5091813;28;21025;-72
2022/09/27 06:38:48;;;;;;;3.80;2.60;;;;;;;;;;5091781;28;20447;-72
2022/09/27 06:41:15;;;;;;;3.30;2.67;;;;;;;;;;5091985;28;20954;-72
2022/09/27 06:43:42;;;;;;;3.73;2.90;;;;;;;;;;5091596;28;20458;-72
2022/09/27 06:46:11;;;;;;;4.00;3.10;;;;;;;;;;5091751;28;20990;-72
2022/09/27 06:48:38;;;;;;;3.97;3.07;;;;;;;;;;5089061;28;20457;-72
2022/09/27 06:51:05;;;;;;;4.37;3.03;;;;;;;;;;5090445;28;20450;-72
2022/09/27 06:53:33;;;;;;;9.70;4.27;;;;;;;;;;5090039;28;20456;-72
2022/09/27 06:56:00;;;;;;;5.87;3.73;;;;;;;;;;5090007;28;20856;-72
2022/09/27 07:01:14;;;;;;;5.03;4.50;;;;;;;;;;5089908;28;21017;-72
2022/09/27 07:03:43;;;;;;;5.43;4.17;;;;;;;;;;5092061;28;20927;-72
2022/09/27 07:06:16;;;;;;;7.43;4.60;;;;;;;;;;5094103;28;20546;-72
2022/09/27 07:08:43;;;;;;;19.13;5.87;;;;;;;;;;5093671;28;20459;-72
2022/09/27 07:11:10;;;;;;;20.07;5.83;;;;;;;;;;5093595;28;20446;-72
2022/09/27 07:13:41;;;;;;;11.00;5.90;;;;;;;;;;5093490;28;20451;-72
2022/09/27 07:16:09;;;;;;;20.73;10.87;;;;;;;;;;5094491;28;20498;-72
2022/09/27 07:18:38;;;;;;;15.43;9.67;;;;;;;;;;5094959;28;20458;-72
2022/09/27 07:21:05;;;;;;;20.03;6.03;;;;;;;;;;5094267;28;20469;-72
2022/09/27 07:23:32;;;;;;;12.33;4.40;;;;;;;;;;5094640;28;20450;-72
2022/09/27 07:26:03;;;;;;;5.47;3.30;;;;;;;;;;5094688;28;20466;-72
2022/09/27 07:28:30;;;;;;;3.73;3.10;;;;;;;;;;5094627;28;20486;-71
2022/09/27 07:30:57;;;;;;;6.83;3.30;;;;;;;;;;5094675;28;20454;-71
2022/09/27 07:33:25;;;;;;;4.30;2.83;;;;;;;;;;5094886;28;20560;-71
2022/09/27 07:35:53;;;;;;;3.40;2.53;;;;;;;;;;5094111;28;20462;-71
2022/09/27 07:38:20;;;;;;;3.80;2.90;;;;;;;;;;5094669;28;20462;-71
2022/09/27 07:40:47;;;;;;;3.87;2.80;;;;;;;;;;5094975;28;20450;-71
2022/09/27 07:43:14;;;;;;;7.80;4.10;;;;;;;;;;5094318;28;20467;-71
2022/09/27 07:45:42;;;;;;;5.37;2.87;;;;;;;;;;5094187;28;20462;-71
2022/09/27 07:48:11;;;;;;;4.30;3.67;;;;;;;;;;5094335;28;20443;-71
2022/09/27 07:50:38;;;;;;;3.57;2.53;;;;;;;;;;5094458;28;20774;-71
2022/09/27 07:53:06;;;;;;;4.27;2.93;;;;;;;;;;5094288;28;20450;-71
2022/09/27 07:55:34;;;;;;;5.40;2.33;;;;;;;;;;5093913;28;20859;-71
2022/09/27 07:58:04;;;;;;;2.43;2.07;;;;;;;;;;5094163;28;20489;-71
2022/09/27 08:00:31;;;;;;;2.60;2.40;;;;;;;;;;5094468;28;20446;-71
2022/09/27 08:02:58;;;;;;;2.20;1.90;;;;;;;;;;5094104;28;20458;-71
2022/09/27 08:05:25;;;;;;;3.10;2.00;;;;;;;;;;5093922;28;20819;-71
2022/09/27 08:07:56;;;;;;;3.67;2.33;;;;;;;;;;5094509;28;20442;-71
2022/09/27 08:10:26;;;;;;;3.07;1.77;;;;;;;;;;5094234;28;20447;-71
2022/09/27 08:12:53;;;;;;;4.20;1.97;;;;;;;;;;5094022;28;20451;-71
2022/09/27 08:15:20;;;;;;;2.53;2.00;;;;;;;;;;5093514;28;20888;-71
2022/09/27 08:17:47;;;;;;;1.83;1.33;;;;;;;;;;5093677;28;20491;-71
2022/09/27 08:20:14;;;;;;;3.77;2.00;;;;;;;;;;5093879;28;20454;-71
2022/09/27 08:22:42;;;;;;;2.10;1.80;;;;;;;;;;5093896;28;20455;-71
2022/09/27 08:25:09;;;;;;;5.13;2.40;;;;;;;;;;5093731;28;20469;-71
2022/09/27 08:27:38;;;;;;;2.00;1.60;;;;;;;;;;5093626;28;20442;-71
2022/09/27 08:30:05;;;;;;;2.97;2.10;;;;;;;;;;5093550;28;20447;-71
2022/09/27 08:32:33;;;;;;;4.57;2.13;;;;;;;;;;5093645;28;20446;-71
2022/09/27 08:35:00;;;;;;;3.60;2.30;;;;;;;;;;5093557;28;20799;-71
2022/09/27 08:37:27;;;;;;;4.63;2.50;;;;;;;;;;5093574;28;20486;-71
2022/09/27 08:39:54;;;;;;;2.70;1.67;;;;;;;;;;5093658;28;20447;-71
2022/09/27 08:42:26;;;;;;;3.10;1.90;;;;;;;;;;5093260;28;20474;-71
2022/09/27 08:44:58;;;;;;;12.20;2.37;;;;;;;;;;5086140;28;20490;-71
2022/09/27 08:47:28;;;;;;;3.80;2.33;;;;;;;;;;5072956;28;20448;-71
2022/09/27 08:49:58;;;;;;;1.97;1.57;;;;;;;;;;5073219;28;20865;-71
2022/09/27 08:52:27;;;;;;;4.90;2.40;;;;;;;;;;5072991;28;20444;-71
2022/09/27 08:54:56;;;;;;;4.20;1.63;;;;;;;;;;5073189;28;20483;-71
2022/09/27 08:57:24;;;;;;;3.10;1.50;;;;;;;;;;5072817;28;21031;-71
2022/09/27 08:59:55;;;;;;;2.00;1.50;;;;;;;;;;5073257;28;20963;-71
2022/09/27 09:02:26;;;;;;;2.50;1.30;;;;;;;;;;5073061;28;20808;-71
2022/09/27 09:04:55;;;;;;;3.90;1.80;;;;;;;;;;5072794;28;20476;-71
2022/09/27 09:07:31;;;;;;;2.10;1.60;;;;;;;;;;5077132;28;20451;-71
2022/09/27 09:10:02;;;;;;;2.73;1.67;;;;;;;;;;5090679;28;20541;-71
2022/09/27 09:12:48;;;;;;;2.27;1.50;;;;;;;;;;5091492;28;20794;-71
2022/09/27 09:15:26;;;;;;;3.37;1.90;;;;;;;;;;5091348;28;21006;-70
2022/09/27 09:18:04;;;;;;;5.80;2.70;;;;;;;;;;5091522;28;20497;-71
2022/09/27 09:20:40;;;;;;;4.13;3.20;;;;;;;;;;5091053;28;20545;-71
2022/09/27 09:23:19;;;;;;;4.60;2.10;;;;;;;;;;5091792;28;20454;-71
2022/09/27 09:25:48;;;;;;;2.70;1.50;;;;;;;;;;5090569;28;20537;-71
2022/09/27 09:28:22;;;;;;;2.67;1.50;;;;;;;;;;5091423;28;20449;-71
2022/09/27 09:30:53;;;;;;;3.40;1.50;;;;;;;;;;5091426;28;20446;-71
2022/09/27 09:33:26;;;;;;;7.20;2.17;;;;;;;;;;5091390;28;20471;-71
2022/09/27 09:35:57;;;;;;;4.90;1.70;;;;;;;;;;5091299;28;20990;-72
2022/09/27 09:38:27;;;;;;;2.10;1.10;;;;;;;;;;5091386;28;20482;-72
2022/09/27 09:40:58;;;;;;;2.10;1.20;;;;;;;;;;5091312;28;20457;-72
2022/09/27 09:43:29;;;;;;;4.20;2.50;;;;;;;;;;5091247;28;20911;-72
2022/09/27 09:46:01;;;;;;;2.40;1.73;;;;;;;;;;5091229;28;20467;-72
2022/09/27 09:48:33;;;;;;;6.20;1.77;;;;;;;;;;5091517;28;20454;-72
2022/09/27 09:51:01;;;;;;;3.40;1.40;;;;;;;;;;5091564;28;20451;-72
2022/09/27 09:53:35;;;;;;;3.00;1.50;;;;;;;;;;5090778;28;20454;-72
2022/09/27 09:56:04;;;;;;;3.50;1.60;;;;;;;;;;5091050;28;20489;-72
2022/09/27 09:58:33;;;;;;;4.97;2.20;;;;;;;;;;5090698;28;20493;-72
2022/09/27 10:01:05;;;;;;;2.00;1.40;;;;;;;;;;5090674;28;20446;-72
2022/09/27 10:03:34;;;;;;;1.67;1.37;;;;;;;;;;5090702;28;20932;-71
2022/09/27 10:06:01;;;;;;;2.13;1.87;;;;;;;;;;5090777;28;20467;-72
2022/09/27 10:08:28;;;;;;;3.70;2.10;;;;;;;;;;5091521;28;20451;-72
2022/09/27 10:10:55;;;;;;;2.57;2.00;;;;;;;;;;5091187;28;20672;-72
2022/09/27 10:13:23;;;;;;;1.60;1.20;;;;;;;;;;5087087;28;20705;-71
2022/09/27 10:16:01;;;;;;;1.50;1.10;;;;;;;;;;5070038;28;20482;-71
2022/09/27 10:18:28;;;;;;;1.87;1.30;;;;;;;;;;5070355;28;20494;-71
2022/09/27 10:21:00;;;;;;;1.40;1.10;;;;;;;;;;5071124;28;20459;-71
2022/09/27 10:23:28;;;;;;;3.53;1.80;;;;;;;;;;5071366;28;20451;-71
2022/09/27 10:25:57;;;;;;;1.73;1.47;;;;;;;;;;5071649;28;20520;-71
2022/09/27 10:28:30;;;;;;;2.10;1.90;;;;;;;;;;5071595;28;20451;-71
2022/09/27 10:30:57;;;;;;;2.10;1.27;;;;;;;;;;5071539;28;20456;-71
2022/09/27 10:33:25;;;;;;;1.37;1.00;;;;;;;;;;5072517;28;20455;-71
2022/09/27 10:35:52;;;;;;;1.50;1.00;;;;;;;;;;5072406;28;20468;-71
2022/09/27 10:38:25;;;;;;;1.80;1.33;;;;;;;;;;5075886;28;20483;-71
2022/09/27 10:40:54;;;;;;;2.10;1.30;;;;;;;;;;5076751;28;20819;-71
2022/09/27 10:43:29;;;;;;;2.00;1.20;;;;;;;;;;5076355;28;20470;-71
2022/09/27 10:46:10;;;;;;;1.90;1.20;;;;;;;;;;5076246;28;20479;-71
2022/09/27 10:48:38;;;;;;;1.47;1.00;;;;;;;;;;5076479;28;20447;-71
2022/09/27 10:51:06;;;;;;;3.10;1.00;;;;;;;;;;5076437;28;20609;-71
2022/09/27 10:53:36;;;;;;;2.33;1.10;;;;;;;;;;5076194;28;20456;-72
2022/09/27 10:56:03;;;;;;;1.53;1.17;;;;;;;;;;5076325;28;20475;-71
2022/09/27 10:58:32;;;;;;;1.50;1.10;;;;;;;;;;5076153;28;20487;-71
2022/09/27 11:01:02;;;;;;;1.60;0.97;;;;;;;;;;5076103;28;20452;-71
2022/09/27 11:03:29;;;;;;;1.50;1.10;;;;;;;;;;5076000;28;20488;-71
2022/09/27 11:05:58;;;;;;;2.37;1.10;;;;;;;;;;5076048;28;20475;-71
2022/09/27 11:08:29;;;;;;;3.63;1.10;;;;;;;;;;5075972;28;20440;-71
2022/09/27 11:11:16;;;;;;;1.93;1.20;;;;;;;;;;5076275;28;20549;-71
2022/09/27 11:13:57;;;;;;;1.73;1.40;;;;;;;;;;5075733;28;20451;-71
2022/09/27 11:16:31;;;;;;;2.30;1.50;;;;;;;;;;5075941;28;20462;-71
2022/09/27 11:19:06;;;;;;;2.10;1.67;;;;;;;;;;5079070;28;20585;-71
2022/09/27 11:21:41;;;;;;;3.50;1.97;;;;;;;;;;5095880;28;20457;-71
2022/09/27 11:24:17;;;;;;;3.20;2.10;;;;;;;;;;5095593;28;20446;-71
2022/09/27 11:26:51;;;;;;;1.90;1.33;;;;;;;;;;5095647;28;20454;-71
2022/09/27 11:29:24;;;;;;;2.43;1.13;;;;;;;;;;5095849;28;20467;-71
2022/09/27 11:32:01;;;;;;;3.17;1.60;;;;;;;;;;5095880;28;20814;-71
2022/09/27 11:34:48;;;;;;;2.47;1.10;;;;;;;;;;5095660;28;20477;-71
2022/09/27 11:37:21;;;;;;;1.73;1.43;;;;;;;;;;5095703;28;20458;-72
2022/09/27 11:39:54;;;;;;;1.40;1.00;;;;;;;;;;5095603;28;21035;-71
2022/09/27 11:42:33;;;;;;;1.30;1.00;;;;;;;;;;5095339;28;20536;-71
2022/09/27 11:45:11;;;;;;;2.47;1.40;;;;;;;;;;5095265;28;20842;-71
2022/09/27 11:47:45;;;;;;;2.17;1.10;;;;;;;;;;5095215;28;20936;-71
2022/09/27 11:50:31;;;;;;;1.63;1.30;;;;;;;;;;5094540;28;20935;-71
2022/09/27 11:53:05;;;;;;;1.67;1.17;;;;;;;;;;5095183;28;20457;-71
2022/09/27 11:55:41;;;;;;;1.60;1.10;;;;;;;;;;5095084;28;20990;-71
2022/09/27 11:58:12;;;;;;;1.40;1.07;;;;;;;;;;5073711;28;20495;-71
2022/09/27 12:00:46;;;;;;;3.77;1.00;;;;;;;;;;5086423;28;20958;-71
2022/09/27 12:03:32;;;;;;;2.17;1.50;;;;;;;;;;5093806;28;20474;-71
2022/09/27 12:06:06;;;;;;;1.77;1.20;;;;;;;;;;5093317;28;20470;-71
2022/09/27 12:08:38;;;;;;;1.40;1.10;;;;;;;;;;5093555;28;20955;-71
2022/09/27 12:11:09;;;;;;;1.40;1.10;;;;;;;;;;5093697;28;20997;-71
2022/09/27 12:13:39;;;;;;;2.70;1.10;;;;;;;;;;5092985;28;20947;-71
2022/09/27 12:16:06;;;;;;;2.03;1.20;;;;;;;;;;5093524;28;20474;-71
2022/09/27 12:18:37;;;;;;;2.23;0.93;;;;;;;;;;5093016;28;20486;-71
2022/09/27 12:21:06;;;;;;;2.60;1.30;;;;;;;;;;5093333;28;20799;-71
2022/09/27 12:23:37;;;;;;;2.50;1.17;;;;;;;;;;5093329;28;20455;-71
2022/09/27 12:26:06;;;;;;;1.50;1.17;;;;;;;;;;5093242;28;20477;-71
2022/09/27 12:28:39;;;;;;;1.70;1.20;;;;;;;;;;5093103;28;20944;-71
2022/09/27 12:31:15;;;;;;;1.90;1.40;;;;;;;;;;5093243;28;20462;-71
2022/09/27 12:33:44;;;;;;;1.80;1.30;;;;;;;;;;5092769;28;20477;-71
2022/09/27 12:36:16;;;;;;;2.37;2.00;;;;;;;;;;5093051;28;20995;-71
2022/09/27 12:38:47;;;;;;;1.60;1.20;;;;;;;;;;5092888;28;20490;-71
2022/09/27 12:41:18;;;;;;;1.80;1.10;;;;;;;;;;5092646;28;20504;-71
2022/09/27 12:43:47;;;;;;;1.80;1.27;;;;;;;;;;5092653;28;20462;-71
2022/09/27 12:46:20;;;;;;;2.20;1.50;;;;;;;;;;5092852;28;20477;-71
2022/09/27 12:48:50;;;;;;;3.27;1.27;;;;;;;;;;5092734;28;20493;-71
2022/09/27 12:51:19;;;;;;;1.50;1.20;;;;;;;;;;5092861;28;21011;-71
2022/09/27 12:53:54;;;;;;;3.40;1.53;;;;;;;;;;5092644;28;20936;-71
2022/09/27 12:56:36;;;;;;;1.77;1.10;;;;;;;;;;5092657;28;20458;-71
2022/09/27 12:59:24;;;;;;;1.53;1.20;;;;;;;;;;5092688;28;20489;-71
2022/09/27 13:01:58;;;;;;;1.70;1.37;;;;;;;;;;5086902;28;20459;-71
2022/09/27 13:04:32;;;;;;;3.40;1.10;;;;;;;;;;5092188;28;20477;-71
2022/09/27 13:07:10;;;;;;;1.83;0.90;;;;;;;;;;5092479;28;20446;-71
2022/09/27 13:09:46;;;;;;;2.40;1.50;;;;;;;;;;5092312;28;20443;-71
2022/09/27 13:12:15;;;;;;;1.30;1.00;;;;;;;;;;5092582;28;20939;-72
2022/09/27 13:14:45;;;;;;;3.07;1.30;;;;;;;;;;5092257;28;20482;-72
2022/09/27 13:17:30;;;;;;;1.80;1.10;;;;;;;;;;5092170;28;20447;-72
2022/09/27 13:19:58;;;;;;;4.80;1.93;;;;;;;;;;5092199;28;20450;-72
2022/09/27 13:22:39;;;;;;;1.60;1.20;;;;;;;;;;5075464;28;20479;-72
2022/09/27 13:25:21;;;;;;;2.73;1.20;;;;;;;;;;5071901;28;20498;-71
2022/09/27 13:27:48;;;;;;;3.97;1.20;;;;;;;;;;5071592;28;20453;-71
2022/09/27 13:30:39;;;;;;;5.77;1.80;;;;;;;;;;5072064;28;20455;-71
2022/09/27 13:33:24;;;;;;;4.77;1.33;;;;;;;;;;5061334;28;20467;-71
2022/09/27 13:38:53;;;;;;;3.43;1.77;;;;;;;;;;5109413;27;21058;-71
2022/09/27 13:41:21;;;;;;;2.83;2.00;;;;;;;;;;5109252;28;20449;-71
2022/09/27 13:43:58;;;;;;;2.27;1.63;;;;;;;;;;5109451;28;20445;-71
2022/09/27 13:46:26;;;;;;;4.87;1.70;;;;;;;;;;5089090;28;20952;-71
2022/09/27 13:48:55;;;;;;;1.67;1.33;;;;;;;;;;5088797;28;20449;-71
2022/09/27 13:51:28;;;;;;;2.30;1.70;;;;;;;;;;5088962;28;20948;-71
2022/09/27 13:54:01;;;;;;;2.40;1.50;;;;;;;;;;5088848;28;20666;-71
2022/09/27 13:56:47;;;;;;;1.70;1.23;;;;;;;;;;5088864;28;20486;-71
2022/09/27 13:59:16;;;;;;;1.80;1.47;;;;;;;;;;5090062;28;20461;-71
2022/09/27 14:01:47;;;;;;;2.93;1.70;;;;;;;;;;5089525;28;20461;-71
2022/09/27 14:04:16;;;;;;;2.00;1.20;;;;;;;;;;5089910;28;20467;-71
2022/09/27 14:06:45;;;;;;;2.33;1.40;;;;;;;;;;5089952;28;20461;-71
2022/09/27 14:09:18;;;;;;;4.00;1.57;;;;;;;;;;5090065;28;20505;-71
2022/09/27 14:11:51;;;;;;;2.37;1.00;;;;;;;;;;5089848;28;20497;-71
2022/09/27 14:14:21;;;;;;;1.97;1.30;;;;;;;;;;5089681;28;20471;-70
2022/09/27 14:16:48;;;;;;;3.80;1.17;;;;;;;;;;5089825;28;20522;-70
2022/09/27 14:19:16;;;;;;;1.40;1.00;;;;;;;;;;5089937;28;20458;-70
2022/09/27 14:21:44;;;;;;;2.70;2.10;;;;;;;;;;5089776;28;20454;-70
2022/09/27 14:24:27;;;;;;;1.97;1.40;;;;;;;;;;5089739;28;20898;-70
2022/09/27 14:27:09;;;;;;;2.20;1.60;;;;;;;;;;5089763;28;20447;-70
2022/09/27 14:29:40;;;;;;;2.70;1.90;;;;;;;;;;5087496;28;20463;-70
2022/09/27 14:32:10;;;;;;;3.90;2.90;;;;;;;;;;5089549;28;20504;-70
2022/09/27 14:34:38;;;;;;;2.97;1.80;;;;;;;;;;5089048;28;20523;-70
2022/09/27 14:37:23;;;;;;;2.13;1.60;;;;;;;;;;5087981;28;21019;-70
2022/09/27 14:39:59;;;;;;;1.77;1.40;;;;;;;;;;5082813;28;20530;-70
2022/09/27 14:42:27;;;;;;;1.70;1.20;;;;;;;;;;5078207;28;20821;-70
2022/09/27 14:44:56;;;;;;;1.97;1.57;;;;;;;;;;5069013;28;20474;-70
2022/09/27 14:47:24;;;;;;;2.20;1.67;;;;;;;;;;5085321;28;20952;-70
2022/09/27 14:49:52;;;;;;;2.47;1.70;;;;;;;;;;5076920;28;20459;-70
2022/09/27 14:52:23;;;;;;;3.13;1.83;;;;;;;;;;5074311;28;20448;-70
2022/09/27 14:54:59;;;;;;;2.07;1.67;;;;;;;;;;5075927;28;20482;-70
2022/09/27 14:57:27;;;;;;;2.20;1.60;;;;;;;;;;5070299;28;20837;-70
2022/09/27 14:59:56;;;;;;;4.90;3.50;;;;;;;;;;5055934;28;20524;-70
2022/09/27 15:02:25;;;;;;;2.90;1.70;;;;;;;;;;5071764;28;20455;-70
2022/09/27 15:04:52;;;;;;;3.97;2.90;;;;;;;;;;5073257;28;20484;-70
2022/09/27 15:07:21;;;;;;;5.20;2.10;;;;;;;;;;5058939;28;20958;-70
2022/09/27 15:09:49;;;;;;;3.93;2.17;;;;;;;;;;5056085;28;20471;-70